sensor_id;sensor_type;location;lat;lon;timestamp;temperature;humidity
6142;DHT22;71289;51.552;6.210;2023-07-29T00:00:42;20.30;99.90
6142;DHT22;71289;51.552;6.210;2023-07-29T00:03:08;20.30;99.90
6142;DHT22;71289;51.552;6.210;2023-07-29T00:05:34;20.30;99.90
6142;DHT22;71289;51.552;6.210;2023-07-29T00:07:59;20.30;99.90
6142;DHT22;71289;51.552;6.210;2023-07-29T00:10:25;20.30;99.90
6142;DHT22;71289;51.552;6.210;2023-07-29T00:12:51;20.30;99.90
6142;DHT22;71289;51.552;6.210;2023-07-29T00:15:16;20.30;99.90
6142;DHT22;71289;51.552;6.210;2023-07-29T00:17:42;20.30;99.90
6142;DHT22;71289;51.552;6.210;2023-07-29T00:20:08;20.30;99.90
6142;DHT22;71289;51.552;6.210;2023-07-29T00:22:33;20.30;99.90
6142;DHT22;71289;51.552;6.210;2023-07-29T00:24:59;20.30;99.90
6142;DHT22;71289;51.552;6.210;2023-07-29T00:27:25;20.30;99.90
6142;DHT22;71289;51.552;6.210;2023-07-29T00:29:51;20.40;99.90
6142;DHT22;71289;51.552;6.210;2023-07-29T00:32:16;20.30;99.90
6142;DHT22;71289;51.552;6.210;2023-07-29T00:34:42;20.30;99.90
6142;DHT22;71289;51.552;6.210;2023-07-29T00:37:08;20.20;99.90
6142;DHT22;71289;51.552;6.210;2023-07-29T00:39:34;20.20;99.90
6142;DHT22;71289;51.552;6.210;2023-07-29T00:42:00;20.20;99.90
6142;DHT22;71289;51.552;6.210;2023-07-29T00:44:25;20.10;99.90
6142;DHT22;71289;51.552;6.210;2023-07-29T00:46:54;20.10;99.90
6142;DHT22;71289;51.552;6.210;2023-07-29T00:49:21;20.10;99.90
6142;DHT22;71289;51.552;6.210;2023-07-29T00:51:47;20.20;99.90
6142;DHT22;71289;51.552;6.210;2023-07-29T00:54:13;20.20;99.90
6142;DHT22;71289;51.552;6.210;2023-07-29T00:56:39;20.30;99.90
6142;DHT22;71289;51.552;6.210;2023-07-29T00:59:05;20.20;99.90
6142;DHT22;71289;51.552;6.210;2023-07-29T01:01:31;20.20;99.90
6142;DHT22;71289;51.552;6.210;2023-07-29T01:03:57;20.30;99.90
6142;DHT22;71289;51.552;6.210;2023-07-29T01:09:17;20.20;99.90
6142;DHT22;71289;51.552;6.210;2023-07-29T01:12:05;20.20;99.90
6142;DHT22;71289;51.552;6.210;2023-07-29T01:14:47;20.20;99.90
6142;DHT22;71289;51.552;6.210;2023-07-29T01:17:22;20.30;99.90
6142;DHT22;71289;51.552;6.210;2023-07-29T01:19:55;20.30;99.90
6142;DHT22;71289;51.552;6.210;2023-07-29T01:22:21;20.30;99.90
6142;DHT22;71289;51.552;6.210;2023-07-29T01:24:47;20.30;99.90
6142;DHT22;71289;51.552;6.210;2023-07-29T01:27:12;20.30;99.90
6142;DHT22;71289;51.552;6.210;2023-07-29T01:29:38;20.30;99.90
6142;DHT22;71289;51.552;6.210;2023-07-29T01:32:12;20.30;99.90
6142;DHT22;71289;51.552;6.210;2023-07-29T01:34:47;20.30;99.90
6142;DHT22;71289;51.552;6.210;2023-07-29T01:37:19;20.30;99.90
6142;DHT22;71289;51.552;6.210;2023-07-29T01:39:46;20.10;99.90
6142;DHT22;71289;51.552;6.210;2023-07-29T01:42:13;20.30;99.90
6142;DHT22;71289;51.552;6.210;2023-07-29T01:44:39;20.30;99.90
6142;DHT22;71289;51.552;6.210;2023-07-29T01:47:04;20.30;99.90
6142;DHT22;71289;51.552;6.210;2023-07-29T01:49:30;20.20;99.90
6142;DHT22;71289;51.552;6.210;2023-07-29T01:51:55;20.20;99.90
6142;DHT22;71289;51.552;6.210;2023-07-29T01:54:21;20.20;99.90
6142;DHT22;71289;51.552;6.210;2023-07-29T01:56:47;20.20;99.90
6142;DHT22;71289;51.552;6.210;2023-07-29T01:59:12;20.20;99.90
6142;DHT22;71289;51.552;6.210;2023-07-29T02:01:39;20.40;99.90
6142;DHT22;71289;51.552;6.210;2023-07-29T02:04:04;20.20;99.90
6142;DHT22;71289;51.552;6.210;2023-07-29T02:06:30;20.10;99.90
6142;DHT22;71289;51.552;6.210;2023-07-29T02:08:55;20.20;99.90
6142;DHT22;71289;51.552;6.210;2023-07-29T02:11:21;20.20;99.90
6142;DHT22;71289;51.552;6.210;2023-07-29T02:13:53;20.40;99.90
6142;DHT22;71289;51.552;6.210;2023-07-29T02:16:19;20.20;99.90
6142;DHT22;71289;51.552;6.210;2023-07-29T02:18:44;20.20;99.90
6142;DHT22;71289;51.552;6.210;2023-07-29T02:21:10;20.30;99.90
6142;DHT22;71289;51.552;6.210;2023-07-29T02:23:35;20.20;99.90
6142;DHT22;71289;51.552;6.210;2023-07-29T02:26:01;20.20;99.90
6142;DHT22;71289;51.552;6.210;2023-07-29T02:28:26;20.20;99.90
6142;DHT22;71289;51.552;6.210;2023-07-29T02:31:16;20.20;99.90
6142;DHT22;71289;51.552;6.210;2023-07-29T02:33:42;20.20;99.90
6142;DHT22;71289;51.552;6.210;2023-07-29T02:36:08;20.20;99.90
6142;DHT22;71289;51.552;6.210;2023-07-29T02:38:33;20.10;99.90
6142;DHT22;71289;51.552;6.210;2023-07-29T02:40:59;20.10;99.90
6142;DHT22;71289;51.552;6.210;2023-07-29T02:43:24;20.10;99.90
6142;DHT22;71289;51.552;6.210;2023-07-29T02:45:50;20.10;99.90
6142;DHT22;71289;51.552;6.210;2023-07-29T02:48:15;20.10;99.90
6142;DHT22;71289;51.552;6.210;2023-07-29T02:50:41;20.10;99.90
6142;DHT22;71289;51.552;6.210;2023-07-29T02:53:06;20.00;99.90
6142;DHT22;71289;51.552;6.210;2023-07-29T02:55:32;20.10;99.90
6142;DHT22;71289;51.552;6.210;2023-07-29T02:57:57;20.10;99.90
6142;DHT22;71289;51.552;6.210;2023-07-29T03:00:23;20.00;99.90
6142;DHT22;71289;51.552;6.210;2023-07-29T03:02:50;20.10;99.90
6142;DHT22;71289;51.552;6.210;2023-07-29T03:05:15;20.10;99.90
6142;DHT22;71289;51.552;6.210;2023-07-29T03:07:41;20.00;99.90
6142;DHT22;71289;51.552;6.210;2023-07-29T03:10:07;19.90;99.90
6142;DHT22;71289;51.552;6.210;2023-07-29T03:12:32;19.90;99.90
6142;DHT22;71289;51.552;6.210;2023-07-29T03:14:58;19.90;99.90
6142;DHT22;71289;51.552;6.210;2023-07-29T03:17:25;19.80;99.90
6142;DHT22;71289;51.552;6.210;2023-07-29T03:19:51;19.80;99.90
6142;DHT22;71289;51.552;6.210;2023-07-29T03:22:17;19.80;99.90
6142;DHT22;71289;51.552;6.210;2023-07-29T03:24:42;19.70;99.90
6142;DHT22;71289;51.552;6.210;2023-07-29T03:27:08;19.50;99.90
6142;DHT22;71289;51.552;6.210;2023-07-29T03:29:35;19.70;99.90
6142;DHT22;71289;51.552;6.210;2023-07-29T03:32:00;19.70;99.90
6142;DHT22;71289;51.552;6.210;2023-07-29T03:34:26;19.60;99.90
6142;DHT22;71289;51.552;6.210;2023-07-29T03:36:51;19.90;99.90
6142;DHT22;71289;51.552;6.210;2023-07-29T03:39:17;19.50;99.90
6142;DHT22;71289;51.552;6.210;2023-07-29T03:41:42;19.50;99.90
6142;DHT22;71289;51.552;6.210;2023-07-29T03:44:08;19.50;99.90
6142;DHT22;71289;51.552;6.210;2023-07-29T03:46:33;19.50;99.90
6142;DHT22;71289;51.552;6.210;2023-07-29T03:48:59;19.50;99.90
6142;DHT22;71289;51.552;6.210;2023-07-29T03:51:24;19.40;99.90
6142;DHT22;71289;51.552;6.210;2023-07-29T03:53:50;19.40;99.90
6142;DHT22;71289;51.552;6.210;2023-07-29T03:56:16;19.50;99.90
6142;DHT22;71289;51.552;6.210;2023-07-29T03:58:42;19.50;99.90
6142;DHT22;71289;51.552;6.210;2023-07-29T04:01:09;19.50;99.90
6142;DHT22;71289;51.552;6.210;2023-07-29T04:03:34;19.50;99.90
6142;DHT22;71289;51.552;6.210;2023-07-29T04:06:00;19.50;99.90
6142;DHT22;71289;51.552;6.210;2023-07-29T04:08:26;19.50;99.90
6142;DHT22;71289;51.552;6.210;2023-07-29T04:10:51;19.40;99.90
6142;DHT22;71289;51.552;6.210;2023-07-29T04:13:17;19.40;99.90
6142;DHT22;71289;51.552;6.210;2023-07-29T04:15:42;19.40;99.90
6142;DHT22;71289;51.552;6.210;2023-07-29T04:18:08;19.30;99.90
6142;DHT22;71289;51.552;6.210;2023-07-29T04:20:33;19.50;99.90
6142;DHT22;71289;51.552;6.210;2023-07-29T04:22:59;19.30;99.90
6142;DHT22;71289;51.552;6.210;2023-07-29T04:25:25;19.30;99.90
6142;DHT22;71289;51.552;6.210;2023-07-29T04:27:50;19.30;99.90
6142;DHT22;71289;51.552;6.210;2023-07-29T04:30:16;19.30;99.90
6142;DHT22;71289;51.552;6.210;2023-07-29T04:32:41;19.40;99.90
6142;DHT22;71289;51.552;6.210;2023-07-29T04:35:08;19.20;99.90
6142;DHT22;71289;51.552;6.210;2023-07-29T04:37:34;19.10;99.90
6142;DHT22;71289;51.552;6.210;2023-07-29T04:39:59;19.20;99.90
6142;DHT22;71289;51.552;6.210;2023-07-29T04:42:25;19.10;99.90
6142;DHT22;71289;51.552;6.210;2023-07-29T04:44:50;19.10;99.90
6142;DHT22;71289;51.552;6.210;2023-07-29T04:47:16;19.10;99.90
6142;DHT22;71289;51.552;6.210;2023-07-29T04:49:42;19.20;99.90
6142;DHT22;71289;51.552;6.210;2023-07-29T04:52:07;19.20;99.90
6142;DHT22;71289;51.552;6.210;2023-07-29T04:54:33;19.20;99.90
6142;DHT22;71289;51.552;6.210;2023-07-29T04:56:59;19.20;99.90
6142;DHT22;71289;51.552;6.210;2023-07-29T04:59:24;19.30;99.90
6142;DHT22;71289;51.552;6.210;2023-07-29T05:01:50;19.40;99.90
6142;DHT22;71289;51.552;6.210;2023-07-29T05:04:15;19.20;99.90
6142;DHT22;71289;51.552;6.210;2023-07-29T05:06:41;19.10;99.90
6142;DHT22;71289;51.552;6.210;2023-07-29T05:09:14;19.00;99.90
6142;DHT22;71289;51.552;6.210;2023-07-29T05:11:39;18.90;99.90
6142;DHT22;71289;51.552;6.210;2023-07-29T05:14:05;18.70;99.90
6142;DHT22;71289;51.552;6.210;2023-07-29T05:16:31;18.80;99.90
6142;DHT22;71289;51.552;6.210;2023-07-29T05:18:57;18.80;99.90
6142;DHT22;71289;51.552;6.210;2023-07-29T05:21:23;19.00;99.90
6142;DHT22;71289;51.552;6.210;2023-07-29T05:23:48;18.70;99.90
6142;DHT22;71289;51.552;6.210;2023-07-29T05:26:14;18.80;99.90
6142;DHT22;71289;51.552;6.210;2023-07-29T05:28:39;18.80;99.90
6142;DHT22;71289;51.552;6.210;2023-07-29T05:31:05;18.80;99.90
6142;DHT22;71289;51.552;6.210;2023-07-29T05:33:30;18.70;99.90
6142;DHT22;71289;51.552;6.210;2023-07-29T05:35:56;18.70;99.90
6142;DHT22;71289;51.552;6.210;2023-07-29T05:38:21;18.60;99.90
6142;DHT22;71289;51.552;6.210;2023-07-29T05:40:48;18.60;99.90
6142;DHT22;71289;51.552;6.210;2023-07-29T05:43:14;18.60;99.90
6142;DHT22;71289;51.552;6.210;2023-07-29T05:45:40;18.50;99.90
6142;DHT22;71289;51.552;6.210;2023-07-29T05:48:05;18.80;99.90
6142;DHT22;71289;51.552;6.210;2023-07-29T05:50:31;18.50;99.90
6142;DHT22;71289;51.552;6.210;2023-07-29T05:52:56;18.50;99.90
6142;DHT22;71289;51.552;6.210;2023-07-29T05:55:22;18.80;99.90
6142;DHT22;71289;51.552;6.210;2023-07-29T05:57:47;18.50;99.90
6142;DHT22;71289;51.552;6.210;2023-07-29T06:00:13;18.50;99.90
6142;DHT22;71289;51.552;6.210;2023-07-29T06:02:39;18.50;99.90
6142;DHT22;71289;51.552;6.210;2023-07-29T06:05:06;18.80;99.90
6142;DHT22;71289;51.552;6.210;2023-07-29T06:07:32;18.50;99.90
6142;DHT22;71289;51.552;6.210;2023-07-29T06:09:59;18.50;99.90
6142;DHT22;71289;51.552;6.210;2023-07-29T06:12:25;18.60;99.90
6142;DHT22;71289;51.552;6.210;2023-07-29T06:14:50;18.60;99.90
6142;DHT22;71289;51.552;6.210;2023-07-29T06:17:16;18.60;99.90
6142;DHT22;71289;51.552;6.210;2023-07-29T06:19:41;18.60;99.90
6142;DHT22;71289;51.552;6.210;2023-07-29T06:22:07;18.60;99.90
6142;DHT22;71289;51.552;6.210;2023-07-29T06:24:32;18.70;99.90
6142;DHT22;71289;51.552;6.210;2023-07-29T06:26:58;18.70;99.90
6142;DHT22;71289;51.552;6.210;2023-07-29T06:29:24;18.80;99.90
6142;DHT22;71289;51.552;6.210;2023-07-29T06:31:49;18.80;99.90
6142;DHT22;71289;51.552;6.210;2023-07-29T06:34:17;18.80;99.90
6142;DHT22;71289;51.552;6.210;2023-07-29T06:36:42;18.90;99.90
6142;DHT22;71289;51.552;6.210;2023-07-29T06:39:08;19.00;99.90
6142;DHT22;71289;51.552;6.210;2023-07-29T06:41:33;19.10;99.90
6142;DHT22;71289;51.552;6.210;2023-07-29T06:43:59;19.20;99.90
6142;DHT22;71289;51.552;6.210;2023-07-29T06:46:24;19.20;99.90
6142;DHT22;71289;51.552;6.210;2023-07-29T06:48:50;19.30;99.90
6142;DHT22;71289;51.552;6.210;2023-07-29T06:51:15;19.30;99.90
6142;DHT22;71289;51.552;6.210;2023-07-29T06:53:41;19.30;99.90
6142;DHT22;71289;51.552;6.210;2023-07-29T06:56:06;19.50;99.90
6142;DHT22;71289;51.552;6.210;2023-07-29T06:58:32;19.40;99.90
6142;DHT22;71289;51.552;6.210;2023-07-29T07:00:58;19.40;99.90
6142;DHT22;71289;51.552;6.210;2023-07-29T07:03:23;19.30;99.90
6142;DHT22;71289;51.552;6.210;2023-07-29T07:05:49;19.60;99.90
6142;DHT22;71289;51.552;6.210;2023-07-29T07:08:15;19.70;99.90
6142;DHT22;71289;51.552;6.210;2023-07-29T07:10:40;19.60;99.90
6142;DHT22;71289;51.552;6.210;2023-07-29T07:13:06;19.70;99.90
6142;DHT22;71289;51.552;6.210;2023-07-29T07:15:31;19.70;99.90
6142;DHT22;71289;51.552;6.210;2023-07-29T07:17:57;19.70;99.90
6142;DHT22;71289;51.552;6.210;2023-07-29T07:20:23;19.70;99.90
6142;DHT22;71289;51.552;6.210;2023-07-29T07:22:48;20.00;99.90
6142;DHT22;71289;51.552;6.210;2023-07-29T07:25:14;19.80;99.90
6142;DHT22;71289;51.552;6.210;2023-07-29T07:27:39;19.90;99.90
6142;DHT22;71289;51.552;6.210;2023-07-29T07:30:05;19.90;99.90
6142;DHT22;71289;51.552;6.210;2023-07-29T07:32:31;20.00;99.90
6142;DHT22;71289;51.552;6.210;2023-07-29T07:34:56;20.00;99.90
6142;DHT22;71289;51.552;6.210;2023-07-29T07:37:22;20.10;99.90
6142;DHT22;71289;51.552;6.210;2023-07-29T07:39:47;20.20;99.90
6142;DHT22;71289;51.552;6.210;2023-07-29T07:42:13;20.20;99.90
6142;DHT22;71289;51.552;6.210;2023-07-29T07:44:38;20.30;99.90
6142;DHT22;71289;51.552;6.210;2023-07-29T07:47:04;20.70;99.90
6142;DHT22;71289;51.552;6.210;2023-07-29T07:49:30;20.40;99.90
6142;DHT22;71289;51.552;6.210;2023-07-29T07:51:55;20.40;99.90
6142;DHT22;71289;51.552;6.210;2023-07-29T07:54:21;20.40;99.90
6142;DHT22;71289;51.552;6.210;2023-07-29T07:56:46;20.50;99.90
6142;DHT22;71289;51.552;6.210;2023-07-29T07:59:12;20.50;99.90
6142;DHT22;71289;51.552;6.210;2023-07-29T08:01:38;20.60;99.90
6142;DHT22;71289;51.552;6.210;2023-07-29T08:04:04;20.40;99.90
6142;DHT22;71289;51.552;6.210;2023-07-29T08:06:31;20.80;99.90
6142;DHT22;71289;51.552;6.210;2023-07-29T08:08:57;20.90;99.90
6142;DHT22;71289;51.552;6.210;2023-07-29T08:11:22;21.00;99.90
6142;DHT22;71289;51.552;6.210;2023-07-29T08:13:48;21.10;99.90
6142;DHT22;71289;51.552;6.210;2023-07-29T08:16:14;21.10;99.90
6142;DHT22;71289;51.552;6.210;2023-07-29T08:18:39;21.10;99.90
6142;DHT22;71289;51.552;6.210;2023-07-29T08:21:05;21.10;99.90
6142;DHT22;71289;51.552;6.210;2023-07-29T08:23:33;21.00;99.90
6142;DHT22;71289;51.552;6.210;2023-07-29T08:26:00;21.00;99.90
6142;DHT22;71289;51.552;6.210;2023-07-29T08:28:35;21.00;99.90
6142;DHT22;71289;51.552;6.210;2023-07-29T08:31:01;21.00;99.90
6142;DHT22;71289;51.552;6.210;2023-07-29T08:33:27;21.00;99.90
6142;DHT22;71289;51.552;6.210;2023-07-29T08:35:53;21.00;99.90
6142;DHT22;71289;51.552;6.210;2023-07-29T08:38:19;21.10;99.90
6142;DHT22;71289;51.552;6.210;2023-07-29T08:43:33;21.20;99.90
6142;DHT22;71289;51.552;6.210;2023-07-29T08:46:00;21.20;99.90
6142;DHT22;71289;51.552;6.210;2023-07-29T08:48:36;21.20;99.90
6142;DHT22;71289;51.552;6.210;2023-07-29T08:51:05;20.80;99.90
6142;DHT22;71289;51.552;6.210;2023-07-29T08:53:33;21.20;99.90
6142;DHT22;71289;51.552;6.210;2023-07-29T08:55:59;21.10;99.90
6142;DHT22;71289;51.552;6.210;2023-07-29T08:58:25;21.10;99.90
6142;DHT22;71289;51.552;6.210;2023-07-29T09:00:50;21.10;99.90
6142;DHT22;71289;51.552;6.210;2023-07-29T09:03:16;21.20;99.90
6142;DHT22;71289;51.552;6.210;2023-07-29T09:05:41;21.40;99.90
6142;DHT22;71289;51.552;6.210;2023-07-29T09:08:07;21.10;99.90
6142;DHT22;71289;51.552;6.210;2023-07-29T09:10:36;21.40;99.90
6142;DHT22;71289;51.552;6.210;2023-07-29T09:13:03;21.40;99.90
6142;DHT22;71289;51.552;6.210;2023-07-29T09:15:30;21.50;99.90
6142;DHT22;71289;51.552;6.210;2023-07-29T09:17:57;21.60;99.90
6142;DHT22;71289;51.552;6.210;2023-07-29T09:20:26;21.60;99.90
6142;DHT22;71289;51.552;6.210;2023-07-29T09:22:54;21.70;99.90
6142;DHT22;71289;51.552;6.210;2023-07-29T09:25:24;21.60;99.90
6142;DHT22;71289;51.552;6.210;2023-07-29T09:27:50;21.60;99.90
6142;DHT22;71289;51.552;6.210;2023-07-29T09:30:16;21.30;99.90
6142;DHT22;71289;51.552;6.210;2023-07-29T09:32:42;21.40;99.90
6142;DHT22;71289;51.552;6.210;2023-07-29T09:35:12;21.60;99.90
6142;DHT22;71289;51.552;6.210;2023-07-29T09:37:38;21.60;99.90
6142;DHT22;71289;51.552;6.210;2023-07-29T09:40:05;21.70;99.90
6142;DHT22;71289;51.552;6.210;2023-07-29T09:42:31;21.70;99.90
6142;DHT22;71289;51.552;6.210;2023-07-29T09:44:57;22.00;99.90
6142;DHT22;71289;51.552;6.210;2023-07-29T09:47:24;21.80;99.90
6142;DHT22;71289;51.552;6.210;2023-07-29T09:49:51;21.80;99.90
6142;DHT22;71289;51.552;6.210;2023-07-29T09:52:19;21.80;99.90
6142;DHT22;71289;51.552;6.210;2023-07-29T09:54:45;21.90;99.90
6142;DHT22;71289;51.552;6.210;2023-07-29T09:57:14;21.90;99.90
6142;DHT22;71289;51.552;6.210;2023-07-29T09:59:41;22.00;99.90
6142;DHT22;71289;51.552;6.210;2023-07-29T10:02:14;22.10;99.90
6142;DHT22;71289;51.552;6.210;2023-07-29T10:04:42;22.20;99.90
6142;DHT22;71289;51.552;6.210;2023-07-29T10:07:09;22.30;99.90
6142;DHT22;71289;51.552;6.210;2023-07-29T10:09:36;22.70;99.90
6142;DHT22;71289;51.552;6.210;2023-07-29T10:12:03;22.70;99.90
6142;DHT22;71289;51.552;6.210;2023-07-29T10:14:31;22.90;99.90
6142;DHT22;71289;51.552;6.210;2023-07-29T10:16:57;23.30;99.90
6142;DHT22;71289;51.552;6.210;2023-07-29T10:19:24;23.50;99.90
6142;DHT22;71289;51.552;6.210;2023-07-29T10:21:51;23.50;99.90
6142;DHT22;71289;51.552;6.210;2023-07-29T10:24:19;23.80;99.90
6142;DHT22;71289;51.552;6.210;2023-07-29T10:26:49;23.90;99.90
6142;DHT22;71289;51.552;6.210;2023-07-29T10:29:19;24.00;99.90
6142;DHT22;71289;51.552;6.210;2023-07-29T10:31:46;24.10;99.90
6142;DHT22;71289;51.552;6.210;2023-07-29T10:34:12;24.10;99.90
6142;DHT22;71289;51.552;6.210;2023-07-29T10:36:39;24.20;99.90
6142;DHT22;71289;51.552;6.210;2023-07-29T10:39:07;24.50;99.90
6142;DHT22;71289;51.552;6.210;2023-07-29T10:42:02;24.30;99.90
6142;DHT22;71289;51.552;6.210;2023-07-29T10:47:21;24.20;99.90
6142;DHT22;71289;51.552;6.210;2023-07-29T10:49:51;24.20;99.90
6142;DHT22;71289;51.552;6.210;2023-07-29T10:55:00;24.00;99.90
6142;DHT22;71289;51.552;6.210;2023-07-29T10:57:39;24.00;99.90
6142;DHT22;71289;51.552;6.210;2023-07-29T11:00:07;23.80;99.90
6142;DHT22;71289;51.552;6.210;2023-07-29T11:02:37;23.70;99.90
6142;DHT22;71289;51.552;6.210;2023-07-29T11:05:18;23.70;99.90
6142;DHT22;71289;51.552;6.210;2023-07-29T11:07:46;23.60;99.90
6142;DHT22;71289;51.552;6.210;2023-07-29T11:10:12;23.50;99.90
6142;DHT22;71289;51.552;6.210;2023-07-29T11:12:48;23.90;99.90
6142;DHT22;71289;51.552;6.210;2023-07-29T11:15:23;24.10;99.90
6142;DHT22;71289;51.552;6.210;2023-07-29T11:20:19;24.50;99.90
6142;DHT22;71289;51.552;6.210;2023-07-29T11:22:45;24.50;99.90
6142;DHT22;71289;51.552;6.210;2023-07-29T11:25:13;24.70;99.90
6142;DHT22;71289;51.552;6.210;2023-07-29T11:27:39;25.00;99.90
6142;DHT22;71289;51.552;6.210;2023-07-29T11:30:09;24.60;99.90
6142;DHT22;71289;51.552;6.210;2023-07-29T11:32:36;24.60;99.90
6142;DHT22;71289;51.552;6.210;2023-07-29T11:37:29;24.50;99.90
6142;DHT22;71289;51.552;6.210;2023-07-29T11:39:54;24.50;99.90
6142;DHT22;71289;51.552;6.210;2023-07-29T11:42:20;24.30;99.90
6142;DHT22;71289;51.552;6.210;2023-07-29T11:44:46;23.90;99.90
6142;DHT22;71289;51.552;6.210;2023-07-29T11:47:12;24.20;99.90
6142;DHT22;71289;51.552;6.210;2023-07-29T11:49:39;24.30;99.90
6142;DHT22;71289;51.552;6.210;2023-07-29T11:52:09;24.20;99.90
6142;DHT22;71289;51.552;6.210;2023-07-29T11:54:38;24.20;99.90
6142;DHT22;71289;51.552;6.210;2023-07-29T11:57:08;24.20;99.90
6142;DHT22;71289;51.552;6.210;2023-07-29T11:59:35;24.10;99.90
6142;DHT22;71289;51.552;6.210;2023-07-29T12:02:01;23.70;99.90
6142;DHT22;71289;51.552;6.210;2023-07-29T12:04:29;23.80;99.90
6142;DHT22;71289;51.552;6.210;2023-07-29T12:06:55;23.70;99.90
6142;DHT22;71289;51.552;6.210;2023-07-29T12:09:21;23.50;99.90
6142;DHT22;71289;51.552;6.210;2023-07-29T12:11:47;23.50;99.90
6142;DHT22;71289;51.552;6.210;2023-07-29T12:14:13;23.50;99.90
6142;DHT22;71289;51.552;6.210;2023-07-29T12:16:43;23.60;99.90
6142;DHT22;71289;51.552;6.210;2023-07-29T12:19:08;23.70;99.90
6142;DHT22;71289;51.552;6.210;2023-07-29T12:21:37;23.70;99.90
6142;DHT22;71289;51.552;6.210;2023-07-29T12:24:03;23.80;99.90
6142;DHT22;71289;51.552;6.210;2023-07-29T12:26:29;23.80;99.90
6142;DHT22;71289;51.552;6.210;2023-07-29T12:28:55;23.80;99.90
6142;DHT22;71289;51.552;6.210;2023-07-29T12:31:22;23.40;99.90
6142;DHT22;71289;51.552;6.210;2023-07-29T12:33:56;23.80;99.90
6142;DHT22;71289;51.552;6.210;2023-07-29T12:36:21;23.70;99.90
6142;DHT22;71289;51.552;6.210;2023-07-29T12:38:47;23.50;99.90
6142;DHT22;71289;51.552;6.210;2023-07-29T12:41:13;23.30;99.90
6142;DHT22;71289;51.552;6.210;2023-07-29T12:43:38;23.30;99.90
6142;DHT22;71289;51.552;6.210;2023-07-29T12:46:04;23.20;99.90
6142;DHT22;71289;51.552;6.210;2023-07-29T12:48:29;23.10;99.90
6142;DHT22;71289;51.552;6.210;2023-07-29T12:50:55;22.80;99.90
6142;DHT22;71289;51.552;6.210;2023-07-29T12:53:20;22.30;99.90
6142;DHT22;71289;51.552;6.210;2023-07-29T12:55:46;22.10;99.90
6142;DHT22;71289;51.552;6.210;2023-07-29T12:58:11;21.90;99.90
6142;DHT22;71289;51.552;6.210;2023-07-29T13:00:37;21.70;99.90
6142;DHT22;71289;51.552;6.210;2023-07-29T13:03:03;21.60;99.90
6142;DHT22;71289;51.552;6.210;2023-07-29T13:05:31;21.50;99.90
6142;DHT22;71289;51.552;6.210;2023-07-29T13:07:56;21.30;99.90
6142;DHT22;71289;51.552;6.210;2023-07-29T13:10:22;21.00;99.90
6142;DHT22;71289;51.552;6.210;2023-07-29T13:12:47;21.20;99.90
6142;DHT22;71289;51.552;6.210;2023-07-29T13:15:14;21.10;99.90
6142;DHT22;71289;51.552;6.210;2023-07-29T13:17:40;21.10;99.90
6142;DHT22;71289;51.552;6.210;2023-07-29T13:20:06;21.10;99.90
6142;DHT22;71289;51.552;6.210;2023-07-29T13:22:32;21.10;99.90
6142;DHT22;71289;51.552;6.210;2023-07-29T13:24:58;21.00;99.90
6142;DHT22;71289;51.552;6.210;2023-07-29T13:27:23;20.90;99.90
6142;DHT22;71289;51.552;6.210;2023-07-29T13:29:49;20.90;99.90
6142;DHT22;71289;51.552;6.210;2023-07-29T13:32:15;20.90;99.90
6142;DHT22;71289;51.552;6.210;2023-07-29T13:34:40;20.80;99.90
6142;DHT22;71289;51.552;6.210;2023-07-29T13:37:06;20.30;99.90
6142;DHT22;71289;51.552;6.210;2023-07-29T13:39:32;20.10;99.90
6142;DHT22;71289;51.552;6.210;2023-07-29T13:41:57;20.10;99.90
6142;DHT22;71289;51.552;6.210;2023-07-29T13:44:23;19.80;99.90
6142;DHT22;71289;51.552;6.210;2023-07-29T13:46:48;19.70;99.90
6142;DHT22;71289;51.552;6.210;2023-07-29T13:49:14;19.80;99.90
6142;DHT22;71289;51.552;6.210;2023-07-29T13:51:39;19.60;99.90
6142;DHT22;71289;51.552;6.210;2023-07-29T13:54:05;19.70;99.90
6142;DHT22;71289;51.552;6.210;2023-07-29T13:56:30;19.80;99.90
6142;DHT22;71289;51.552;6.210;2023-07-29T13:58:56;19.90;99.90
6142;DHT22;71289;51.552;6.210;2023-07-29T14:01:21;20.10;99.90
6142;DHT22;71289;51.552;6.210;2023-07-29T14:03:47;20.20;99.90
6142;DHT22;71289;51.552;6.210;2023-07-29T14:06:12;20.50;99.90
6142;DHT22;71289;51.552;6.210;2023-07-29T14:08:38;20.60;99.90
6142;DHT22;71289;51.552;6.210;2023-07-29T14:11:06;20.80;99.90
6142;DHT22;71289;51.552;6.210;2023-07-29T14:13:31;20.90;99.90
6142;DHT22;71289;51.552;6.210;2023-07-29T14:15:57;21.10;99.90
6142;DHT22;71289;51.552;6.210;2023-07-29T14:18:22;21.20;99.90
6142;DHT22;71289;51.552;6.210;2023-07-29T14:20:48;21.20;99.90
6142;DHT22;71289;51.552;6.210;2023-07-29T14:23:14;21.40;99.90
6142;DHT22;71289;51.552;6.210;2023-07-29T14:25:40;21.40;99.90
6142;DHT22;71289;51.552;6.210;2023-07-29T14:28:05;21.60;99.90
6142;DHT22;71289;51.552;6.210;2023-07-29T14:30:31;21.90;99.90
6142;DHT22;71289;51.552;6.210;2023-07-29T14:32:57;22.10;99.90
6142;DHT22;71289;51.552;6.210;2023-07-29T14:35:22;22.20;99.90
6142;DHT22;71289;51.552;6.210;2023-07-29T14:37:48;22.40;99.90
6142;DHT22;71289;51.552;6.210;2023-07-29T14:40:13;22.40;99.90
6142;DHT22;71289;51.552;6.210;2023-07-29T14:42:39;22.60;99.90
6142;DHT22;71289;51.552;6.210;2023-07-29T14:45:05;22.50;99.90
6142;DHT22;71289;51.552;6.210;2023-07-29T14:47:30;22.50;99.90
6142;DHT22;71289;51.552;6.210;2023-07-29T14:50:00;22.40;99.90
6142;DHT22;71289;51.552;6.210;2023-07-29T14:52:25;22.30;99.90
6142;DHT22;71289;51.552;6.210;2023-07-29T14:54:51;22.30;99.90
6142;DHT22;71289;51.552;6.210;2023-07-29T14:57:17;22.40;99.90
6142;DHT22;71289;51.552;6.210;2023-07-29T14:59:42;22.70;99.90
6142;DHT22;71289;51.552;6.210;2023-07-29T15:02:08;22.70;99.90
6142;DHT22;71289;51.552;6.210;2023-07-29T15:04:34;22.80;99.90
6142;DHT22;71289;51.552;6.210;2023-07-29T15:06:59;23.00;99.90
6142;DHT22;71289;51.552;6.210;2023-07-29T15:09:25;23.10;99.90
6142;DHT22;71289;51.552;6.210;2023-07-29T15:11:51;23.00;99.90
6142;DHT22;71289;51.552;6.210;2023-07-29T15:14:16;22.90;99.90
6142;DHT22;71289;51.552;6.210;2023-07-29T15:16:42;22.60;99.90
6142;DHT22;71289;51.552;6.210;2023-07-29T15:19:07;22.20;99.90
6142;DHT22;71289;51.552;6.210;2023-07-29T15:21:33;22.20;99.90
6142;DHT22;71289;51.552;6.210;2023-07-29T15:23:59;22.30;99.90
6142;DHT22;71289;51.552;6.210;2023-07-29T15:26:24;22.30;99.90
6142;DHT22;71289;51.552;6.210;2023-07-29T15:28:50;22.40;99.90
6142;DHT22;71289;51.552;6.210;2023-07-29T15:31:15;22.50;99.90
6142;DHT22;71289;51.552;6.210;2023-07-29T15:33:41;22.60;99.90
6142;DHT22;71289;51.552;6.210;2023-07-29T15:36:06;22.90;99.90
6142;DHT22;71289;51.552;6.210;2023-07-29T15:38:32;23.10;99.90
6142;DHT22;71289;51.552;6.210;2023-07-29T15:40:59;23.30;99.90
6142;DHT22;71289;51.552;6.210;2023-07-29T15:43:24;23.40;99.90
6142;DHT22;71289;51.552;6.210;2023-07-29T15:45:50;23.70;99.90
6142;DHT22;71289;51.552;6.210;2023-07-29T15:48:15;23.50;99.90
6142;DHT22;71289;51.552;6.210;2023-07-29T15:50:41;23.50;99.90
6142;DHT22;71289;51.552;6.210;2023-07-29T15:53:07;23.30;99.90
6142;DHT22;71289;51.552;6.210;2023-07-29T15:55:33;23.10;99.90